createdAt,value
2022-08-08T00:02:32.892Z,3.23
2022-08-08T00:06:02.767Z,2.53
2022-08-08T00:08:57.541Z,3.27
2022-08-08T00:12:03.070Z,4.10
2022-08-08T00:15:03.305Z,3.03
2022-08-08T00:18:03.688Z,3.53
2022-08-08T00:20:43.047Z,3.40
2022-08-08T00:23:23.002Z,2.80
2022-08-08T00:26:02.896Z,4.40
2022-08-08T00:28:44.537Z,3.13
2022-08-08T00:32:28.389Z,3.60
2022-08-08T00:35:18.419Z,3.23
2022-08-08T00:38:44.434Z,4.60
2022-08-08T00:41:55.039Z,4.20
2022-08-08T00:44:55.922Z,3.07
2022-08-08T00:48:04.891Z,3.87
2022-08-08T00:51:11.015Z,3.07
2022-08-08T00:54:16.058Z,5.23
2022-08-08T00:57:19.838Z,3.63
2022-08-08T01:00:17.790Z,3.33
2022-08-08T01:04:02.838Z,3.00
2022-08-08T01:07:23.697Z,3.27
2022-08-08T01:10:45.559Z,2.90
2022-08-08T01:13:58.605Z,2.80
2022-08-08T01:17:02.409Z,2.67
2022-08-08T01:20:02.669Z,2.90
2022-08-08T01:23:00.023Z,2.97
2022-08-08T01:26:11.801Z,2.70
2022-08-08T01:29:35.122Z,2.80
2022-08-08T01:32:33.284Z,2.90
2022-08-08T01:35:44.137Z,2.60
2022-08-08T01:38:23.205Z,3.37
2022-08-08T01:41:15.900Z,2.50
2022-08-08T01:43:56.768Z,2.90
2022-08-08T01:47:05.830Z,2.70
2022-08-08T01:50:01.880Z,2.77
2022-08-08T01:54:32.983Z,2.60
2022-08-08T01:56:29.807Z,2.70
2022-08-08T01:59:05.316Z,2.40
2022-08-08T02:02:34.725Z,2.43
2022-08-08T02:05:23.565Z,2.60
2022-08-08T02:08:34.818Z,2.60
2022-08-08T02:11:58.794Z,3.10
2022-08-08T02:14:55.696Z,2.97
2022-08-08T02:17:43.284Z,2.80
2022-08-08T02:21:00.983Z,2.90
2022-08-08T02:23:36.878Z,2.90
2022-08-08T02:26:15.866Z,2.83
2022-08-08T02:29:18.559Z,3.17
2022-08-08T02:32:22.780Z,3.27
2022-08-08T02:35:29.395Z,3.27
2022-08-08T02:38:39.776Z,3.53
2022-08-08T02:42:04.300Z,3.07
2022-08-08T02:45:18.277Z,2.80
2022-08-08T02:47:59.794Z,2.83
2022-08-08T02:50:56.927Z,3.23
2022-08-08T02:54:40.686Z,3.23
2022-08-08T02:57:40.470Z,3.27
2022-08-08T03:00:51.342Z,3.43
2022-08-08T03:05:03.898Z,2.73
2022-08-08T03:07:58.886Z,3.30
2022-08-08T03:10:59.931Z,2.63
2022-08-08T03:15:56.775Z,3.30
2022-08-08T03:16:51.095Z,2.93
2022-08-08T03:19:58.196Z,2.93
2022-08-08T03:23:04.492Z,3.30
2022-08-08T03:25:37.113Z,3.53
2022-08-08T03:28:29.378Z,3.17
2022-08-08T03:31:24.848Z,2.87
2022-08-08T03:34:01.021Z,2.93
2022-08-08T03:36:31.683Z,2.87
2022-08-08T03:39:15.116Z,3.07
2022-08-08T03:42:27.145Z,2.60
2022-08-08T03:44:44.944Z,2.90
2022-08-08T03:47:45.180Z,3.40
2022-08-08T03:50:34.371Z,2.70
2022-08-08T03:53:24.037Z,3.60
2022-08-08T04:02:22.972Z,3.37
2022-08-08T04:04:53.687Z,3.30
2022-08-08T04:07:26.516Z,2.90
2022-08-08T04:10:10.784Z,3.40
2022-08-08T04:12:42.343Z,3.20
2022-08-08T04:15:15.744Z,3.27
2022-08-08T04:17:58.991Z,2.93
2022-08-08T04:20:36.929Z,3.30
2022-08-08T04:23:07.971Z,3.30
2022-08-08T04:25:40.309Z,2.83
2022-08-08T04:28:41.632Z,3.43
2022-08-08T04:31:09.269Z,3.57
2022-08-08T04:33:54.222Z,4.13
2022-08-08T04:36:34.678Z,4.03
2022-08-08T04:40:04.717Z,4.03
2022-08-08T04:42:03.097Z,3.20
2022-08-08T04:44:35.965Z,3.47
2022-08-08T04:47:12.475Z,2.97
2022-08-08T04:50:00.603Z,3.30
2022-08-08T04:52:41.027Z,3.13
2022-08-08T04:55:24.582Z,3.70
2022-08-08T04:58:11.137Z,3.70
2022-08-08T05:00:42.366Z,3.77
2022-08-08T05:03:18.700Z,4.00
2022-08-08T05:06:12.909Z,3.80
2022-08-08T05:08:51.751Z,3.63
2022-08-08T05:11:24.490Z,3.90
2022-08-08T05:14:01.340Z,3.87
2022-08-08T05:16:51.360Z,4.10
2022-08-08T05:20:12.463Z,4.47
2022-08-08T05:22:22.666Z,4.63
2022-08-08T05:24:56.151Z,4.40
2022-08-08T05:27:23.558Z,5.43
2022-08-08T05:30:02.985Z,5.30
2022-08-08T05:32:37.069Z,4.83
2022-08-08T05:35:06.233Z,4.77
2022-08-08T05:37:52.745Z,4.80
2022-08-08T05:40:29.888Z,5.50
2022-08-08T05:43:38.494Z,5.10
2022-08-08T05:46:09.416Z,5.63
2022-08-08T05:48:57.557Z,5.20
2022-08-08T05:51:49.173Z,5.03
2022-08-08T05:54:27.539Z,5.60
2022-08-08T05:57:21.044Z,6.63
2022-08-08T06:00:25.502Z,5.63
2022-08-08T06:03:24.871Z,5.83
2022-08-08T06:06:06.039Z,6.27
2022-08-08T06:09:59.038Z,5.77
2022-08-08T06:15:16.251Z,6.03
2022-08-08T06:17:51.079Z,6.30
2022-08-08T06:20:44.710Z,6.60
2022-08-08T06:23:26.329Z,5.93
2022-08-08T06:26:38.953Z,6.30
2022-08-08T06:29:49.316Z,5.70
2022-08-08T06:32:11.534Z,6.43
2022-08-08T06:35:12.073Z,6.45
2022-08-08T06:38:01.636Z,6.80
2022-08-08T06:40:53.509Z,6.93
2022-08-08T06:43:28.764Z,6.15
2022-08-08T06:46:09.059Z,6.82
2022-08-08T06:48:49.034Z,6.78
2022-08-08T06:51:23.397Z,7.05
2022-08-08T06:54:13.238Z,6.13
2022-08-08T06:56:52.714Z,6.03
2022-08-08T07:00:02.635Z,7.05
2022-08-08T07:02:54.918Z,6.70
2022-08-08T07:05:44.517Z,7.03
2022-08-08T07:08:56.364Z,6.43
2022-08-08T07:11:46.188Z,7.32
2022-08-08T07:14:54.394Z,7.90
2022-08-08T07:18:00.932Z,6.97
2022-08-08T07:20:58.353Z,6.70
2022-08-08T07:24:10.884Z,7.50
2022-08-08T07:26:41.881Z,7.80
2022-08-08T07:29:59.881Z,7.43
2022-08-08T07:32:34.544Z,7.30
2022-08-08T07:35:54.360Z,7.40
2022-08-08T07:38:37.355Z,8.13
2022-08-08T07:41:23.793Z,8.40
2022-08-08T07:43:57.610Z,7.97
2022-08-08T07:46:33.484Z,8.30
2022-08-08T07:49:09.676Z,8.73
2022-08-08T07:54:26.962Z,8.05
2022-08-08T07:57:23.968Z,8.00
2022-08-08T08:00:16.623Z,7.88
2022-08-08T08:02:52.101Z,8.35
2022-08-08T08:05:33.381Z,7.88
2022-08-08T08:08:15.277Z,8.23
2022-08-08T08:10:51.174Z,8.25
2022-08-08T08:14:08.109Z,8.07
2022-08-08T08:16:41.083Z,8.32
2022-08-08T08:19:14.747Z,7.75
2022-08-08T08:21:57.426Z,8.13
2022-08-08T08:24:32.182Z,7.57
2022-08-08T08:27:02.560Z,7.03
2022-08-08T08:29:31.316Z,7.45
2022-08-08T08:31:59.173Z,7.78
2022-08-08T08:34:32.145Z,7.65
2022-08-08T08:37:03.447Z,7.10
2022-08-08T08:39:59.977Z,6.43
2022-08-08T08:42:31.947Z,7.20
2022-08-08T08:45:20.857Z,7.00
2022-08-08T08:47:54.325Z,6.78
2022-08-08T08:50:33.282Z,6.68
2022-08-08T08:53:54.576Z,6.88
2022-08-08T08:56:02.468Z,6.47
2022-08-08T08:58:58.040Z,7.20
2022-08-08T09:01:33.098Z,7.07
2022-08-08T09:04:31.306Z,6.45
2022-08-08T09:07:12.052Z,5.97
2022-08-08T09:09:48.356Z,6.63
2022-08-08T09:12:27.442Z,5.95
2022-08-08T09:14:57.956Z,6.60
2022-08-08T09:17:40.820Z,6.40
2022-08-08T09:22:04.773Z,5.93
2022-08-08T09:23:02.028Z,6.03
2022-08-08T09:25:35.535Z,5.10
2022-08-08T09:28:35.610Z,5.30
2022-08-08T09:31:56.824Z,5.45
2022-08-08T09:34:31.474Z,5.20
2022-08-08T09:37:57.063Z,5.38
2022-08-08T09:40:20.802Z,5.00
2022-08-08T09:43:16.776Z,4.88
2022-08-08T09:46:07.683Z,4.45
2022-08-08T09:48:42.449Z,5.00
2022-08-08T09:51:09.909Z,4.60
2022-08-08T09:53:59.681Z,4.85
2022-08-08T09:56:41.135Z,4.63
2022-08-08T09:59:40.459Z,5.25
2022-08-08T10:02:14.575Z,3.80
2022-08-08T10:04:48.331Z,3.75
2022-08-08T10:07:17.278Z,3.60
2022-08-08T10:09:59.213Z,3.92
2022-08-08T10:12:54.049Z,3.90
2022-08-08T10:15:27.871Z,3.50
2022-08-08T10:18:07.250Z,3.72
2022-08-08T10:20:51.297Z,3.35
2022-08-08T10:23:58.625Z,3.63
2022-08-08T10:26:52.196Z,3.50
2022-08-08T10:29:58.759Z,4.00
2022-08-08T10:32:32.919Z,3.08
2022-08-08T10:35:11.713Z,3.78
2022-08-08T10:37:54.939Z,3.92
2022-08-08T10:40:25.695Z,3.08
2022-08-08T10:43:05.684Z,3.58
2022-08-08T10:45:57.329Z,3.08
2022-08-08T10:48:57.227Z,3.30
2022-08-08T10:51:26.673Z,3.53
2022-08-08T10:54:01.842Z,3.30
2022-08-08T10:56:36.780Z,3.47
2022-08-08T10:59:13.990Z,3.60
2022-08-08T11:01:54.357Z,3.40
2022-08-08T11:04:29.735Z,2.92
2022-08-08T11:07:05.941Z,2.72
2022-08-08T11:09:34.417Z,3.35
2022-08-08T11:12:13.534Z,3.17
2022-08-08T11:14:53.619Z,3.13
2022-08-08T11:17:58.909Z,3.53
2022-08-08T11:20:18.305Z,3.42
2022-08-08T11:22:57.252Z,3.78
2022-08-08T11:25:43.681Z,3.20
2022-08-08T11:28:23.462Z,3.78
2022-08-08T11:30:57.520Z,3.60
2022-08-08T11:33:51.264Z,2.83
2022-08-08T11:36:15.865Z,2.72
2022-08-08T11:38:54.148Z,2.80
2022-08-08T11:41:28.138Z,3.08
2022-08-08T11:44:00.731Z,3.17
2022-08-08T11:46:30.481Z,3.20
2022-08-08T11:49:04.038Z,3.72
2022-08-08T11:51:40.148Z,2.97
2022-08-08T11:54:31.219Z,3.38
2022-08-08T11:57:27.684Z,3.33
2022-08-08T12:00:09.730Z,3.83
2022-08-08T12:02:55.526Z,3.17
2022-08-08T12:05:40.975Z,3.28
2022-08-08T12:08:08.061Z,3.33
2022-08-08T12:10:50.166Z,3.72
2022-08-08T12:13:37.991Z,3.53
2022-08-08T12:16:17.923Z,3.03
2022-08-08T12:18:54.367Z,2.90
2022-08-08T12:22:00.707Z,3.50
2022-08-08T12:24:15.986Z,3.60
2022-08-08T12:26:52.550Z,3.28
2022-08-08T12:29:40.602Z,3.10
2022-08-08T12:32:19.510Z,2.50
2022-08-08T12:35:04.461Z,3.25
2022-08-08T12:37:47.853Z,3.10
2022-08-08T12:40:54.083Z,3.30
2022-08-08T12:43:47.579Z,3.40
2022-08-08T12:46:25.344Z,3.00
2022-08-08T12:49:25.148Z,2.90
2022-08-08T12:51:59.347Z,3.25
2022-08-08T12:54:36.681Z,3.35
2022-08-08T12:57:21.245Z,3.22
2022-08-08T13:00:04.748Z,3.08
2022-08-08T13:02:37.000Z,2.95
2022-08-08T13:05:27.056Z,3.03
2022-08-08T13:08:20.467Z,3.05
2022-08-08T13:10:57.979Z,3.60
2022-08-08T13:13:37.352Z,3.03
2022-08-08T13:16:19.881Z,3.35
2022-08-08T13:18:57.619Z,3.15
2022-08-08T13:21:48.707Z,3.60
2022-08-08T13:24:18.809Z,2.83
2022-08-08T13:27:11.834Z,2.90
2022-08-08T13:29:53.129Z,3.35
2022-08-08T13:32:23.853Z,3.05
2022-08-08T13:34:56.227Z,3.45
2022-08-08T13:37:28.021Z,3.13
2022-08-08T13:40:17.700Z,2.92
2022-08-08T13:42:45.530Z,3.60
2022-08-08T13:45:22.285Z,3.85
2022-08-08T13:48:00.068Z,3.60
2022-08-08T13:50:37.849Z,3.33
2022-08-08T13:53:22.697Z,3.05
2022-08-08T13:56:02.342Z,3.83
2022-08-08T13:58:30.642Z,3.53
2022-08-08T14:00:57.823Z,3.78
2022-08-08T14:03:52.998Z,3.45
2022-08-08T14:06:33.355Z,3.65
2022-08-08T14:09:25.152Z,4.20
2022-08-08T14:11:49.134Z,3.83
2022-08-08T14:14:21.050Z,3.22
2022-08-08T14:16:53.198Z,3.47
2022-08-08T14:19:57.378Z,3.65
2022-08-08T14:22:25.482Z,3.65
2022-08-08T14:25:00.004Z,3.60
2022-08-08T14:27:31.055Z,3.40
2022-08-08T14:30:17.776Z,3.80
2022-08-08T14:32:53.087Z,3.75
2022-08-08T14:35:35.190Z,3.78
2022-08-08T14:38:34.177Z,3.55
2022-08-08T14:40:59.060Z,3.42
2022-08-08T14:44:02.730Z,3.60
2022-08-08T14:46:31.034Z,3.50
2022-08-08T14:49:20.841Z,3.50
2022-08-08T14:52:08.655Z,3.42
2022-08-08T14:54:47.556Z,3.53
2022-08-08T14:57:16.252Z,3.38
2022-08-08T14:59:51.198Z,3.90
2022-08-08T15:02:25.703Z,3.58
2022-08-08T15:05:10.701Z,3.65
2022-08-08T15:07:39.480Z,3.40
2022-08-08T15:10:09.951Z,4.07
2022-08-08T15:12:38.584Z,3.50
2022-08-08T15:15:09.242Z,3.78
2022-08-08T15:17:41.825Z,3.35
2022-08-08T15:20:14.062Z,3.15
2022-08-08T15:22:42.678Z,3.80
2022-08-08T15:25:17.674Z,3.30
2022-08-08T15:28:03.297Z,3.47
2022-08-08T15:30:48.712Z,2.92
2022-08-08T15:33:35.553Z,3.13
2022-08-08T15:36:02.556Z,3.08
2022-08-08T15:38:29.631Z,2.97
2022-08-08T15:40:57.164Z,3.00
2022-08-08T15:43:36.360Z,2.67
2022-08-08T15:46:05.790Z,2.65
2022-08-08T15:48:53.359Z,2.83
2022-08-08T15:51:22.452Z,3.00
2022-08-08T15:53:53.603Z,2.63
2022-08-08T15:56:23.042Z,2.83
2022-08-08T15:58:50.357Z,2.90
2022-08-08T16:01:18.247Z,2.92
2022-08-08T16:03:48.289Z,3.17
2022-08-08T16:06:28.446Z,2.75
2022-08-08T16:09:02.450Z,2.63
2022-08-08T16:13:03.532Z,2.60
2022-08-08T16:14:33.089Z,2.42
2022-08-08T16:17:01.234Z,3.00
2022-08-08T16:19:30.166Z,2.67
2022-08-08T16:21:58.113Z,3.05
2022-08-08T16:24:25.151Z,2.92
2022-08-08T16:26:52.987Z,2.70
2022-08-08T16:29:37.500Z,2.42
2022-08-08T16:32:11.603Z,2.55
2022-08-08T16:34:47.876Z,2.70
2022-08-08T16:37:16.219Z,2.40
2022-08-08T16:40:02.631Z,3.08
2022-08-08T16:42:30.545Z,2.40
2022-08-08T16:44:59.534Z,2.50
2022-08-08T16:47:31.658Z,3.00
2022-08-08T16:50:16.729Z,2.38
2022-08-08T16:55:01.843Z,4.20
2022-08-08T16:55:54.959Z,3.47
2022-08-08T16:58:31.635Z,2.90
2022-08-08T17:01:05.509Z,2.85
2022-08-08T17:04:01.211Z,2.65
2022-08-08T17:06:37.148Z,2.35
2022-08-08T17:09:07.493Z,2.65
2022-08-08T17:11:48.708Z,2.28
2022-08-08T17:14:27.329Z,2.42
2022-08-08T17:17:41.643Z,2.20
2022-08-08T17:19:54.217Z,2.20
2022-08-08T17:22:21.215Z,2.70
2022-08-08T17:25:07.545Z,2.17
2022-08-08T17:27:46.056Z,2.20
2022-08-08T17:30:27.539Z,2.60
2022-08-08T17:34:35.026Z,2.17
2022-08-08T17:35:55.735Z,2.45
2022-08-08T17:38:37.222Z,2.50
2022-08-08T17:41:04.037Z,2.08
2022-08-08T17:44:00.730Z,1.90
2022-08-08T17:46:55.507Z,2.40
2022-08-08T17:49:28.773Z,1.98
2022-08-08T17:52:05.817Z,2.30
2022-08-08T17:54:33.911Z,1.70
2022-08-08T17:57:01.326Z,1.80
2022-08-08T17:59:30.615Z,2.00
2022-08-08T18:02:04.701Z,1.90
2022-08-08T18:04:38.605Z,1.67
2022-08-08T18:08:01.994Z,1.92
2022-08-08T18:10:05.198Z,1.70
2022-08-08T18:12:32.007Z,1.60
2022-08-08T18:14:58.982Z,1.50
2022-08-08T18:17:28.470Z,2.05
2022-08-08T18:20:36.619Z,1.50
2022-08-08T18:22:50.966Z,1.92
2022-08-08T18:25:19.117Z,1.83
2022-08-08T18:27:46.108Z,2.20
2022-08-08T18:30:14.231Z,1.58
2022-08-08T18:32:42.134Z,1.70
2022-08-08T18:35:34.134Z,1.58
2022-08-08T18:38:17.362Z,1.55
2022-08-08T18:40:46.644Z,1.40
2022-08-08T18:43:16.417Z,1.65
2022-08-08T18:46:53.333Z,1.13
2022-08-08T18:48:32.407Z,1.50
2022-08-08T18:50:59.916Z,1.38
2022-08-08T18:53:58.127Z,1.58
2022-08-08T18:56:29.306Z,1.70
2022-08-08T18:58:56.297Z,1.55
2022-08-08T19:02:26.609Z,1.50
2022-08-08T19:04:12.715Z,1.52
2022-08-08T19:06:40.076Z,2.35
2022-08-08T19:09:13.324Z,1.67
2022-08-08T19:11:46.650Z,1.90
2022-08-08T19:14:20.726Z,1.80
2022-08-08T19:16:48.562Z,1.60
2022-08-08T19:19:17.771Z,1.70
2022-08-08T19:21:49.224Z,1.65
2022-08-08T19:24:39.287Z,1.88
2022-08-08T19:27:06.999Z,1.58
2022-08-08T19:29:35.613Z,1.73
2022-08-08T19:32:12.664Z,1.50
2022-08-08T19:34:41.816Z,1.52
2022-08-08T19:37:18.432Z,1.70
2022-08-08T19:40:15.976Z,1.70
2022-08-08T19:42:44.164Z,1.65
2022-08-08T19:45:14.015Z,1.58
2022-08-08T19:47:41.643Z,1.50
2022-08-08T19:50:09.716Z,1.50
2022-08-08T19:52:54.931Z,1.45
2022-08-08T19:55:27.152Z,1.55
2022-08-08T19:58:00.676Z,1.40
2022-08-08T20:00:32.904Z,1.30
2022-08-08T20:03:01.683Z,1.50
2022-08-08T20:06:13.761Z,1.30
2022-08-08T20:08:32.062Z,1.60
2022-08-08T20:11:01.817Z,1.55
2022-08-08T20:14:33.751Z,1.58
2022-08-08T20:16:17.593Z,1.55
2022-08-08T20:18:53.124Z,1.83
2022-08-08T20:21:25.762Z,1.60
2022-08-08T20:23:57.891Z,1.52
2022-08-08T20:26:29.976Z,1.70
2022-08-08T20:29:00.411Z,1.50
2022-08-08T20:31:47.024Z,1.67
2022-08-08T20:34:31.349Z,1.33
2022-08-08T20:37:00.696Z,1.35
2022-08-08T20:39:39.005Z,1.45
2022-08-08T20:42:15.741Z,1.50
2022-08-08T20:44:42.801Z,1.50
2022-08-08T20:47:22.928Z,1.35
2022-08-08T20:49:50.942Z,1.60
2022-08-08T20:52:23.381Z,1.45
2022-08-08T20:54:50.263Z,1.67
2022-08-08T20:57:18.985Z,1.20
2022-08-08T20:59:47.834Z,1.58
2022-08-08T21:02:19.853Z,1.92
2022-08-08T21:04:57.463Z,1.48
2022-08-08T21:07:46.939Z,1.58
2022-08-08T21:10:16.538Z,1.80
2022-08-08T21:12:44.607Z,1.60
2022-08-08T21:15:16.466Z,1.70
2022-08-08T21:18:00.874Z,1.75
2022-08-08T21:20:34.203Z,1.50
2022-08-08T21:23:03.356Z,1.70
2022-08-08T21:25:32.890Z,1.63
2022-08-08T21:28:16.016Z,1.60
2022-08-08T21:30:45.274Z,1.42
2022-08-08T21:33:16.862Z,1.48
2022-08-08T21:36:18.001Z,1.35
2022-08-08T21:38:31.208Z,1.60
2022-08-08T21:40:58.238Z,1.80
2022-08-08T21:43:30.911Z,1.40
2022-08-08T21:48:12.861Z,1.58
2022-08-08T21:48:51.812Z,1.73
2022-08-08T21:51:20.366Z,1.98
2022-08-08T21:54:31.997Z,1.60
2022-08-08T21:56:59.929Z,2.00
2022-08-08T22:00:01.256Z,1.70
2022-08-08T22:02:15.781Z,1.73
2022-08-08T22:04:43.410Z,1.73
2022-08-08T22:07:10.625Z,1.93
2022-08-08T22:09:43.557Z,1.60
2022-08-08T22:12:17.036Z,1.60
2022-08-08T22:14:50.045Z,1.63
2022-08-08T22:17:19.545Z,2.43
2022-08-08T22:20:11.478Z,1.60
2022-08-08T22:22:37.872Z,1.63
2022-08-08T22:25:17.678Z,1.73
2022-08-08T22:28:04.382Z,1.93
2022-08-08T22:30:38.638Z,1.53
2022-08-08T22:33:09.212Z,2.20
2022-08-08T22:36:04.932Z,1.80
2022-08-08T22:38:38.086Z,1.80
2022-08-08T22:41:20.789Z,1.90
2022-08-08T22:44:02.137Z,1.67
2022-08-08T22:46:32.887Z,1.60
2022-08-08T22:49:00.076Z,1.87
2022-08-08T22:51:29.248Z,1.80
2022-08-08T22:54:28.322Z,1.50
2022-08-08T22:56:51.519Z,2.50
2022-08-08T22:59:18.809Z,2.27
2022-08-08T23:02:03.877Z,1.90
2022-08-08T23:04:33.610Z,1.77
2022-08-08T23:07:02.711Z,2.00
2022-08-08T23:09:31.257Z,1.63
2022-08-08T23:12:28.730Z,1.70
2022-08-08T23:14:59.730Z,1.90
2022-08-08T23:17:30.124Z,2.00
2022-08-08T23:19:57.282Z,1.97
2022-08-08T23:22:27.246Z,1.97
2022-08-08T23:24:56.981Z,2.00
2022-08-08T23:27:39.103Z,1.83
2022-08-08T23:30:13.123Z,2.20
2022-08-08T23:32:45.043Z,1.93
2022-08-08T23:35:18.664Z,1.90
2022-08-08T23:38:02.937Z,1.90
2022-08-08T23:40:34.025Z,2.13
2022-08-08T23:43:02.782Z,2.47
2022-08-08T23:49:00.667Z,2.50
2022-08-08T23:49:07.326Z,2.03
2022-08-08T23:51:12.752Z,1.87
2022-08-08T23:54:04.946Z,2.40
2022-08-08T23:56:34.164Z,2.30
2022-08-08T23:59:02.334Z,2.10
